Time;durP1;ratioP1;P1;durP2;ratioP2;P2;SDS_P1;SDS_P2;PMS_P1;PMS_P2;Temp;Humidity;BMP_temperature;BMP_pressure;BME280_temperature;BME280_humidity;BME280_pressure;Samples;Min_cycle;Max_cycle;Signal;HPM_P1;HPM_P2
2023/01/22 00:01:57;;;;;;;12.87;6.87;;;;;;;0.60;71.99;100348.06;4977452;28;20507;-81
2023/01/22 00:04:23;;;;;;;9.90;7.23;;;;;;;0.59;71.98;100351.50;4974823;28;20461;-80
2023/01/22 00:06:48;;;;;;;15.23;8.87;;;;;;;0.59;71.91;100349.78;4970486;28;20194;-80
2023/01/22 00:09:14;;;;;;;8.67;6.60;;;;;;;0.59;71.89;100347.19;4967155;28;20605;-80
2023/01/22 00:11:40;;;;;;;11.90;7.50;;;;;;;0.58;71.92;100350.66;4967689;28;20222;-80
2023/01/22 00:14:05;;;;;;;8.60;7.20;;;;;;;0.58;72.07;100347.22;4965898;28;20677;-80
2023/01/22 00:16:31;;;;;;;8.73;6.47;;;;;;;0.59;71.86;100354.94;4967951;28;20464;-80
2023/01/22 00:18:56;;;;;;;11.63;6.77;;;;;;;0.62;72.00;100344.59;4963423;28;20200;-80
2023/01/22 00:21:22;;;;;;;18.17;7.97;;;;;;;0.61;71.94;100350.63;4964239;28;20203;-81
2023/01/22 00:23:47;;;;;;;12.27;6.97;;;;;;;0.63;72.13;100348.88;4966403;28;20186;-81
2023/01/22 00:26:15;;;;;;;11.70;7.37;;;;;;;0.61;72.00;100344.59;4967927;28;20488;-80
2023/01/22 00:28:45;;;;;;;8.38;5.22;;;;;;;0.60;72.32;100351.50;4962693;28;20285;-80
2023/01/22 00:31:12;;;;;;;10.00;5.95;;;;;;;0.60;72.23;100348.91;4951775;28;20225;-80
2023/01/22 00:33:40;;;;;;;9.93;6.82;;;;;;;0.62;72.29;100343.72;4966765;28;20863;-80
2023/01/22 00:36:07;;;;;;;12.13;7.10;;;;;;;0.60;72.25;100346.34;4966678;28;20304;-79
2023/01/22 00:38:33;;;;;;;9.38;6.88;;;;;;;0.64;72.21;100340.25;4950124;28;20208;-80
2023/01/22 00:41:01;;;;;;;11.02;7.70;;;;;;;0.65;72.25;100339.38;4967435;28;20617;-80
2023/01/22 00:43:27;;;;;;;9.80;5.65;;;;;;;0.68;72.23;100335.06;4968760;28;20209;-81
2023/01/22 00:45:52;;;;;;;10.73;5.97;;;;;;;0.67;72.12;100331.59;4953440;28;20230;-81
2023/01/22 00:48:18;;;;;;;13.55;8.13;;;;;;;0.69;72.23;100337.63;4968228;28;20283;-82
2023/01/22 00:50:43;;;;;;;13.97;7.30;;;;;;;0.67;72.04;100326.44;4956103;28;20279;-82
2023/01/22 00:53:09;;;;;;;14.20;7.70;;;;;;;0.69;72.30;100334.19;4968217;28;20211;-80
2023/01/22 00:55:34;;;;;;;15.17;7.50;;;;;;;0.67;72.42;100331.59;4949148;28;20855;-80
2023/01/22 00:58:00;;;;;;;10.27;7.47;;;;;;;0.64;72.23;100335.06;4950214;28;20216;-80
2023/01/22 01:00:25;;;;;;;12.20;7.20;;;;;;;0.62;72.64;100326.50;4966758;28;20204;-80
2023/01/22 01:05:35;;;;;;;9.20;6.90;;;;;;;0.62;72.49;100325.63;4949020;28;20302;-80
2023/01/22 01:08:00;;;;;;;12.83;8.27;;;;;;;0.65;72.60;100325.63;4958066;28;20217;-80
2023/01/22 01:10:26;;;;;;;8.07;6.33;;;;;;;0.66;72.50;100325.56;4964622;28;20227;-80
2023/01/22 01:12:51;;;;;;;13.43;7.67;;;;;;;0.69;72.38;100326.41;4967258;28;20704;-81
2023/01/22 01:15:18;;;;;;;11.43;7.57;;;;;;;0.70;72.34;100315.19;4951095;28;20399;-80
2023/01/22 01:17:45;;;;;;;9.40;5.97;;;;;;;0.70;72.36;100326.38;4963891;28;20715;-80
2023/01/22 01:20:11;;;;;;;16.42;8.65;;;;;;;0.68;72.45;100322.13;4947800;28;20195;-80
2023/01/22 01:22:37;;;;;;;9.53;5.40;;;;;;;0.67;72.48;100316.09;4949103;28;20220;-80
2023/01/22 01:25:03;;;;;;;7.93;5.47;;;;;;;0.68;72.42;100322.13;4948622;28;20467;-80
2023/01/22 01:27:30;;;;;;;11.80;5.67;;;;;;;0.69;72.48;100324.69;4967168;28;20259;-80
2023/01/22 01:29:56;;;;;;;9.57;6.15;;;;;;;0.69;72.44;100326.41;4951336;28;20461;-81
2023/01/22 01:32:22;;;;;;;12.43;7.03;;;;;;;0.55;72.91;100319.69;4950454;28;20243;-80
2023/01/22 01:34:48;;;;;;;11.95;7.63;;;;;;;0.59;72.73;100326.50;4948360;28;20452;-80
2023/01/22 01:37:15;;;;;;;13.55;7.30;;;;;;;0.57;73.02;100320.53;4966871;28;20216;-80
2023/01/22 01:39:40;;;;;;;9.50;7.68;;;;;;;0.55;73.23;100324.00;4958793;28;20214;-80
2023/01/22 01:42:06;;;;;;;10.73;6.20;;;;;;;0.56;72.96;100326.53;4964542;28;20562;-80
2023/01/22 01:44:31;;;;;;;7.40;4.10;;;;;;;0.57;72.80;100322.25;4950111;28;20200;-80
2023/01/22 01:47:00;;;;;;;13.60;6.17;;;;;;;0.55;72.72;100318.81;4948776;28;20248;-80
2023/01/22 01:49:51;;;;;;;12.75;7.18;;;;;;;0.57;72.79;100317.94;4947833;28;20525;-80
2023/01/22 01:52:17;;;;;;;8.00;4.97;;;;;;;0.57;72.91;100309.34;4940652;28;20600;-80
2023/01/22 01:54:48;;;;;;;11.43;6.30;;;;;;;0.58;72.58;100311.88;4947640;28;20212;-80
2023/01/22 01:57:19;;;;;;;9.48;6.72;;;;;;;0.59;72.79;100312.72;4949483;28;20244;-80
2023/01/22 01:59:47;;;;;;;9.05;5.85;;;;;;;0.56;72.91;100316.22;4952632;28;20518;-80
2023/01/22 02:02:13;;;;;;;9.40;6.80;;;;;;;0.58;72.96;100317.06;4962996;28;20211;-81
2023/01/22 02:04:38;;;;;;;9.43;6.13;;;;;;;0.60;72.87;100310.16;4963576;28;20200;-80
2023/01/22 02:07:04;;;;;;;11.90;6.17;;;;;;;0.61;72.96;100298.91;4968182;28;20200;-80
2023/01/22 02:09:31;;;;;;;9.45;6.53;;;;;;;0.60;73.09;100306.72;4948115;28;20204;-81
2023/01/22 02:11:57;;;;;;;13.20;6.40;;;;;;;0.59;73.13;100311.00;4946419;28;20232;-80
2023/01/22 02:14:28;;;;;;;11.83;5.93;;;;;;;0.58;73.37;100311.88;4945795;28;20465;-80
2023/01/22 02:17:03;;;;;;;7.25;5.97;;;;;;;0.60;73.02;100310.16;4946945;28;20630;-80
2023/01/22 02:19:29;;;;;;;12.43;7.15;;;;;;;0.62;72.76;100312.69;4951516;28;20209;-80
2023/01/22 02:21:54;;;;;;;7.93;5.57;;;;;;;0.65;73.00;100308.38;4955603;28;20248;-81
2023/01/22 02:24:20;;;;;;;11.17;7.00;;;;;;;0.70;73.02;100307.44;4945264;28;20207;-81
2023/01/22 02:26:45;;;;;;;8.67;5.77;;;;;;;0.71;73.05;100299.69;4948491;28;20240;-80
2023/01/22 02:29:15;;;;;;;9.68;5.85;;;;;;;0.73;73.11;100300.53;4947869;28;20574;-80
2023/01/22 06:08:16;;;;;;;14.60;9.63;;;;;;;0.75;75.38;100321.16;4932975;28;20252;-83
2023/01/22 06:10:49;;;;;;;14.30;9.43;;;;;;;0.76;75.38;100318.56;4880835;29;20235;-80
2023/01/22 06:13:14;;;;;;;17.97;9.30;;;;;;;0.80;75.18;100321.97;4902324;29;20246;-80
2023/01/22 06:15:43;;;;;;;14.70;8.80;;;;;;;0.81;75.17;100323.66;4908118;29;20198;-82
2023/01/22 06:18:25;;;;;;;15.00;9.20;;;;;;;0.84;75.23;100328.84;4909520;29;20261;-81
2023/01/22 06:20:51;;;;;;;15.07;7.70;;;;;;;0.84;75.24;100334.00;4906245;29;20201;-82
2023/01/22 06:23:18;;;;;;;20.08;10.23;;;;;;;0.84;75.05;100340.03;4924059;29;20261;-81
2023/01/22 06:25:51;;;;;;;12.07;8.35;;;;;;;0.87;75.31;100344.31;4893542;29;20231;-81
2023/01/22 06:28:17;;;;;;;17.42;9.63;;;;;;;0.88;75.39;100335.66;4910098;29;20309;-82
2023/01/22 06:30:44;;;;;;;19.30;11.60;;;;;;;0.90;75.25;100333.06;4909787;29;20632;-82
2023/01/22 06:33:09;;;;;;;16.05;9.90;;;;;;;0.90;75.28;100336.50;4908187;29;20200;-81
2023/01/22 06:35:35;;;;;;;13.20;8.63;;;;;;;0.90;75.16;100335.66;4924606;29;20552;-81
2023/01/22 06:38:00;;;;;;;18.77;13.30;;;;;;;0.88;75.13;100336.50;4928801;29;20200;-81
2023/01/22 06:40:29;;;;;;;29.27;15.02;;;;;;;0.90;75.27;100338.25;4904934;29;20218;-80
2023/01/22 06:42:56;;;;;;;16.77;11.90;;;;;;;0.90;75.61;100335.66;4905948;29;20689;-81
2023/01/22 06:45:22;;;;;;;18.63;10.05;;;;;;;0.90;75.42;100346.84;4923778;29;20223;-82
2023/01/22 06:47:52;;;;;;;17.85;10.30;;;;;;;0.90;75.31;100344.28;4911409;29;20198;-81
2023/01/22 06:50:17;;;;;;;17.03;10.20;;;;;;;0.89;75.28;100345.13;4910848;29;20746;-81
2023/01/22 06:52:42;;;;;;;17.87;10.37;;;;;;;0.91;75.42;100350.28;4908391;29;20218;-81
2023/01/22 06:55:08;;;;;;;14.10;8.83;;;;;;;0.92;75.29;100349.41;4905060;29;20225;-80
2023/01/22 06:57:36;;;;;;;16.25;8.77;;;;;;;0.90;75.47;100359.78;4908392;29;20641;-81
2023/01/22 07:00:04;;;;;;;14.83;9.60;;;;;;;0.91;75.06;100361.47;4925107;29;20297;-82
2023/01/22 07:02:30;;;;;;;13.93;9.40;;;;;;;0.91;75.35;100369.25;4914645;29;20596;-82
2023/01/22 07:04:56;;;;;;;17.98;10.27;;;;;;;0.92;75.22;100363.22;4929344;29;20243;-81
2023/01/22 07:07:22;;;;;;;16.08;8.75;;;;;;;0.94;75.29;100366.63;4926835;29;20194;-79
2023/01/22 07:09:47;;;;;;;20.40;10.90;;;;;;;0.97;75.10;100369.16;4943088;28;20295;-79
2023/01/22 07:12:13;;;;;;;18.63;10.87;;;;;;;0.96;75.17;100359.69;4947411;28;20225;-79
2023/01/22 07:14:39;;;;;;;16.88;10.00;;;;;;;0.97;75.14;100374.34;4945235;28;20471;-79
2023/01/22 07:17:09;;;;;;;18.33;9.57;;;;;;;0.99;75.11;100379.50;4928635;28;20208;-79
2023/01/22 07:19:37;;;;;;;18.55;9.57;;;;;;;0.97;74.79;100374.34;4950442;28;20219;-79
2023/01/22 07:22:03;;;;;;;15.38;9.23;;;;;;;0.96;74.94;100372.63;4949938;28;20193;-79
2023/01/22 07:24:28;;;;;;;18.60;9.80;;;;;;;0.98;75.02;100372.63;4950517;28;20209;-79
2023/01/22 07:26:54;;;;;;;14.50;9.43;;;;;;;0.97;75.01;100379.50;4951666;29;20215;-79
2023/01/22 07:29:19;;;;;;;16.20;8.27;;;;;;;1.00;74.98;100370.84;4928350;29;20235;-79
2023/01/22 07:31:46;;;;;;;22.67;9.77;;;;;;;1.01;75.00;100373.44;4927366;29;20481;-79
2023/01/22 07:34:11;;;;;;;23.42;12.15;;;;;;;1.02;75.13;100376.88;4945932;28;20503;-79
2023/01/22 07:36:37;;;;;;;16.83;10.17;;;;;;;1.01;75.30;100372.59;4946438;28;20205;-79
2023/01/22 07:39:04;;;;;;;16.17;9.10;;;;;;;0.99;75.04;100375.19;4945762;28;20312;-79
2023/01/22 07:41:30;;;;;;;14.68;9.18;;;;;;;1.00;75.12;100376.91;4946958;28;20223;-79
2023/01/22 07:43:58;;;;;;;15.07;9.85;;;;;;;1.00;75.31;100386.38;4945642;28;20205;-79
2023/01/22 07:46:24;;;;;;;16.77;11.70;;;;;;;1.01;74.97;100382.94;4945692;28;20202;-78
2023/01/22 07:48:49;;;;;;;18.17;8.80;;;;;;;1.04;75.06;100382.91;4944968;28;20224;-78
2023/01/22 07:51:14;;;;;;;19.57;11.43;;;;;;;1.05;75.11;100385.47;4944503;28;20240;-78
2023/01/22 07:53:41;;;;;;;18.63;10.17;;;;;;;1.08;74.96;100385.44;4947271;28;20217;-78
2023/01/22 07:56:07;;;;;;;21.77;9.52;;;;;;;1.12;74.83;100383.66;4948069;29;20307;-78
2023/01/22 07:58:32;;;;;;;16.30;9.00;;;;;;;1.13;74.99;100387.09;4946668;28;20221;-80
2023/01/22 08:00:58;;;;;;;22.30;11.70;;;;;;;1.13;74.86;100392.28;4949720;28;20456;-80
2023/01/22 08:03:24;;;;;;;19.52;9.75;;;;;;;1.17;74.96;100393.97;4950408;28;20557;-80
2023/01/22 08:05:50;;;;;;;20.07;9.60;;;;;;;1.20;74.77;100387.00;4952874;28;20208;-80
2023/01/22 08:08:19;;;;;;;19.13;12.40;;;;;;;1.22;74.83;100390.44;4955339;28;20347;-80
2023/01/22 08:10:45;;;;;;;18.25;9.50;;;;;;;1.25;74.64;100392.13;4954175;28;20244;-80
2023/01/22 08:13:11;;;;;;;16.30;10.05;;;;;;;1.26;74.60;100399.00;4954598;28;20666;-80
2023/01/22 08:15:37;;;;;;;18.30;12.57;;;;;;;1.27;74.53;100392.94;4955739;28;20239;-80
2023/01/22 08:18:03;;;;;;;18.65;10.90;;;;;;;1.29;74.58;100389.44;4952620;28;20219;-80
2023/01/22 08:20:29;;;;;;;17.73;10.83;;;;;;;1.32;74.47;100398.91;4954703;28;20188;-80
2023/01/22 08:23:01;;;;;;;16.60;12.80;;;;;;;1.33;74.53;100400.66;4949490;28;20726;-80
2023/01/22 08:25:27;;;;;;;16.70;10.30;;;;;;;1.37;74.41;100404.88;4939415;28;20869;-80
2023/01/22 08:27:53;;;;;;;20.00;11.07;;;;;;;1.41;74.42;100403.13;4947668;28;20914;-80
2023/01/22 08:30:20;;;;;;;18.58;10.98;;;;;;;1.44;74.13;100400.50;4947392;28;20203;-80
2023/01/22 08:32:46;;;;;;;23.58;12.45;;;;;;;1.45;74.39;100404.78;4944311;28;20440;-79
2023/01/22 08:35:12;;;;;;;25.23;16.17;;;;;;;1.42;74.47;100405.69;4945658;28;20506;-80
2023/01/22 08:37:37;;;;;;;20.70;12.05;;;;;;;1.46;74.70;100401.31;4938240;28;20566;-79
2023/01/22 08:40:08;;;;;;;23.70;12.27;;;;;;;1.47;74.68;100405.63;4928002;29;20681;-81
2023/01/22 08:42:34;;;;;;;14.25;9.93;;;;;;;1.50;74.53;100409.03;4945776;28;20223;-80
2023/01/22 08:45:00;;;;;;;16.55;11.65;;;;;;;1.53;74.16;100401.22;4945249;28;20320;-80
2023/01/22 08:47:26;;;;;;;18.80;12.57;;;;;;;1.56;74.32;100408.09;4944553;28;20203;-81
2023/01/22 08:49:51;;;;;;;18.83;10.00;;;;;;;1.63;74.14;100401.09;4945682;28;20571;-80
2023/01/22 08:52:17;;;;;;;16.37;10.10;;;;;;;1.68;73.64;100405.34;4953540;28;20340;-80
2023/01/22 08:54:43;;;;;;;18.33;9.35;;;;;;;1.75;73.58;100399.16;4928358;29;20193;-81
2023/01/22 08:57:09;;;;;;;16.20;10.30;;;;;;;1.85;73.56;100399.06;4946994;29;20220;-81
2023/01/22 08:59:34;;;;;;;16.37;9.30;;;;;;;1.88;72.98;100392.06;4945642;29;20221;-81
2023/01/22 09:02:00;;;;;;;16.30;10.70;;;;;;;1.94;72.94;100402.34;4929993;29;20184;-80
2023/01/22 09:04:26;;;;;;;20.70;13.05;;;;;;;2.01;72.96;100400.53;4945928;28;20513;-80
2023/01/22 09:06:51;;;;;;;16.07;10.43;;;;;;;2.06;72.90;100400.47;4943444;28;20215;-80
2023/01/22 09:09:16;;;;;;;17.63;10.97;;;;;;;2.13;73.04;100399.44;4939954;28;20856;-81
2023/01/22 09:11:43;;;;;;;17.50;11.80;;;;;;;2.25;72.72;100398.41;4946954;28;20232;-80
2023/01/22 09:14:08;;;;;;;18.25;10.88;;;;;;;2.34;72.21;100401.69;4943115;28;20750;-80
2023/01/22 09:16:35;;;;;;;17.93;9.43;;;;;;;2.42;71.66;100405.00;4944504;28;20345;-80
2023/01/22 09:19:00;;;;;;;23.05;14.55;;;;;;;2.48;71.62;100408.38;4940527;28;20303;-81
2023/01/22 09:21:25;;;;;;;21.50;13.47;;;;;;;2.52;71.64;100408.31;4935530;29;20519;-81
2023/01/22 09:23:52;;;;;;;14.77;9.53;;;;;;;2.58;71.18;100407.34;4945944;29;20424;-80
2023/01/22 09:26:17;;;;;;;13.23;10.68;;;;;;;2.61;71.05;100412.47;4947663;29;20197;-79
2023/01/22 09:28:42;;;;;;;15.60;10.47;;;;;;;2.62;70.94;100415.03;4947328;29;20225;-79
2023/01/22 09:31:11;;;;;;;14.03;8.47;;;;;;;2.57;70.89;100413.41;4947035;29;20259;-80
2023/01/22 09:33:40;;;;;;;17.25;10.63;;;;;;;2.55;70.81;100423.81;4947194;29;20197;-80
2023/01/22 09:36:09;;;;;;;19.60;10.32;;;;;;;2.53;71.05;100416.94;4946769;29;20337;-80
2023/01/22 09:38:35;;;;;;;14.18;9.02;;;;;;;2.58;71.19;100420.31;4933029;29;20583;-79
2023/01/22 09:41:05;;;;;;;16.90;11.20;;;;;;;2.54;70.90;100411.72;4943662;28;20252;-79
2023/01/22 09:43:35;;;;;;;20.23;10.10;;;;;;;2.58;70.67;100428.09;4943475;28;20212;-80
2023/01/22 09:46:05;;;;;;;16.67;8.38;;;;;;;2.59;70.45;100430.66;4946765;28;20817;-79
2023/01/22 09:48:40;;;;;;;28.15;13.90;;;;;;;2.63;70.58;100434.91;4944654;28;20272;-79
2023/01/22 09:51:06;;;;;;;12.25;9.63;;;;;;;2.69;70.43;100433.94;4935923;28;20220;-78
2023/01/22 09:53:33;;;;;;;20.38;10.98;;;;;;;2.76;70.06;100438.13;4945887;28;20209;-78
2023/01/22 09:56:03;;;;;;;15.68;8.20;;;;;;;2.79;70.02;100429.44;4931083;29;20510;-78
2023/01/22 09:58:30;;;;;;;18.05;11.18;;;;;;;2.82;69.57;100427.63;4946814;28;20224;-77
2023/01/22 10:01:00;;;;;;;15.02;9.40;;;;;;;2.87;69.45;100430.16;4947151;28;20201;-78
2023/01/22 10:03:34;;;;;;;14.95;9.32;;;;;;;2.93;69.68;100429.19;4928015;28;20200;-78
2023/01/22 10:06:02;;;;;;;14.65;9.10;;;;;;;3.00;69.34;100433.38;4952605;28;20783;-78
2023/01/22 10:08:33;;;;;;;17.48;10.65;;;;;;;3.05;69.43;100437.59;4961875;28;20695;-78
2023/01/22 10:10:59;;;;;;;13.65;9.48;;;;;;;3.10;69.41;100430.53;4945585;28;20240;-78
2023/01/22 10:13:34;;;;;;;14.55;9.75;;;;;;;3.15;69.36;100429.59;4954674;28;20208;-77
2023/01/22 10:16:01;;;;;;;15.68;9.63;;;;;;;3.21;68.99;100425.13;4961636;28;20289;-78
2023/01/22 10:18:39;;;;;;;15.23;10.20;;;;;;;3.24;68.97;100425.09;4951717;28;20229;-77
2023/01/22 10:21:30;;;;;;;16.23;10.52;;;;;;;3.23;69.03;100427.72;4951930;28;20696;-78
2023/01/22 10:24:01;;;;;;;13.85;9.40;;;;;;;3.24;68.60;100419.03;4950406;28;20222;-77
2023/01/22 10:27:04;;;;;;;18.70;14.18;;;;;;;3.26;69.02;100428.50;4948206;28;20193;-78
2023/01/22 10:30:03;;;;;;;15.20;11.63;;;;;;;3.25;68.91;100431.13;4950718;28;20701;-78
2023/01/22 10:35:42;;;;;;;14.77;9.60;;;;;;;3.25;68.82;100426.78;4908205;28;20253;-78
2023/01/22 10:38:36;;;;;;;20.75;13.70;;;;;;;3.25;68.47;100425.94;4944400;28;20723;-77
2023/01/22 10:41:34;;;;;;;12.60;8.85;;;;;;;3.23;68.57;100418.19;4930858;28;20809;-78
2023/01/22 10:47:59;;;;;;;10.70;8.85;;;;;;;3.16;68.58;100415.72;4950450;28;20217;-78
2023/01/22 10:51:05;;;;;;;10.95;7.20;;;;;;;3.06;68.73;100409.88;4927642;29;20216;-77
2023/01/22 10:53:57;;;;;;;9.80;8.53;;;;;;;3.03;68.29;100409.94;4767608;28;5001596;-78
2023/01/22 10:56:53;;;;;;;11.57;8.30;;;;;;;3.03;68.60;100415.16;4943569;28;20475;-77
2023/01/22 10:59:39;;;;;;;11.90;8.20;;;;;;;3.06;68.76;100422.88;4947490;28;20313;-78
2023/01/22 11:02:42;;;;;;;15.55;10.00;;;;;;;3.14;68.28;100423.56;4938711;28;20221;-78
2023/01/22 11:05:33;;;;;;;14.75;11.57;;;;;;;3.19;68.57;100419.13;4924751;29;20565;-78
2023/01/22 11:08:13;;;;;;;13.48;10.35;;;;;;;3.25;68.72;100420.75;4937518;28;20460;-78
2023/01/22 11:10:55;;;;;;;14.93;9.93;;;;;;;3.27;68.57;100414.66;4948238;29;20228;-78
2023/01/22 11:13:36;;;;;;;12.27;8.00;;;;;;;3.29;68.05;100417.19;4940699;28;20643;-77
2023/01/22 11:20:02;;;;;;;10.68;7.57;;;;;;;3.35;68.03;100416.19;4923363;28;20240;-77
2023/01/22 11:22:42;;;;;;;12.75;8.70;;;;;;;3.33;68.26;100417.09;4941391;28;20220;-77
2023/01/22 11:25:33;;;;;;;11.55;8.77;;;;;;;3.31;68.09;100428.41;4946703;28;20214;-78
2023/01/22 11:28:24;;;;;;;11.30;8.48;;;;;;;3.30;67.80;100424.97;4930959;28;20234;-78
2023/01/22 11:31:38;;;;;;;13.57;9.05;;;;;;;3.29;68.43;100433.66;4944068;28;20270;-78
2023/01/22 11:34:38;;;;;;;12.27;9.07;;;;;;;3.27;68.27;100425.03;4940048;28;20215;-78
2023/01/22 11:37:11;;;;;;;14.38;9.23;;;;;;;3.26;67.99;100428.50;4945855;28;20205;-77
2023/01/22 11:39:43;;;;;;;19.65;10.18;;;;;;;3.22;68.04;100424.25;4925171;29;20217;-77
2023/01/22 11:42:25;;;;;;;12.27;8.70;;;;;;;3.18;68.38;100419.16;4944508;28;20258;-77
2023/01/22 11:44:58;;;;;;;14.55;9.63;;;;;;;3.20;68.37;100420.84;4943772;28;20255;-77
2023/01/22 11:47:42;;;;;;;13.80;9.07;;;;;;;3.20;68.36;100431.22;4942901;28;20869;-78
2023/01/22 11:50:25;;;;;;;10.77;8.63;;;;;;;3.22;68.17;100423.41;4945111;28;20280;-78
2023/01/22 11:53:29;;;;;;;14.45;9.80;;;;;;;3.22;68.19;100416.47;4943122;28;20204;-78
2023/01/22 11:56:07;;;;;;;12.25;8.20;;;;;;;3.27;68.06;100409.44;4938987;28;20299;-78
2023/01/22 11:58:58;;;;;;;13.57;9.82;;;;;;;3.32;68.17;100406.72;4944801;28;20431;-78
2023/01/22 12:01:35;;;;;;;16.80;9.55;;;;;;;3.35;68.25;100400.63;4946614;29;20646;-78
2023/01/22 12:04:13;;;;;;;12.07;9.00;;;;;;;3.37;68.00;100393.66;4939300;28;20212;-78
2023/01/22 12:07:08;;;;;;;11.13;7.85;;;;;;;3.39;67.77;100397.09;4945357;28;20236;-77
2023/01/22 12:09:42;;;;;;;11.98;8.35;;;;;;;3.37;67.72;100393.66;4950662;28;20303;-79
2023/01/22 12:12:07;;;;;;;13.00;8.15;;;;;;;3.35;68.01;100403.22;4953693;28;20252;-79
2023/01/22 12:15:12;;;;;;;11.50;8.30;;;;;;;3.30;67.90;100401.59;4952566;28;20205;-79
2023/01/22 12:18:00;;;;;;;14.15;8.93;;;;;;;3.24;67.90;100406.03;4948538;28;20259;-80
2023/01/22 12:20:48;;;;;;;13.25;8.13;;;;;;;3.23;68.18;100412.13;4952418;29;20474;-80
2023/01/22 12:23:20;;;;;;;11.93;8.07;;;;;;;3.27;68.27;100406.00;4952714;28;20216;-80
2023/01/22 12:26:01;;;;;;;11.55;6.57;;;;;;;3.25;68.05;100397.38;4954147;28;20216;-80
2023/01/22 12:28:38;;;;;;;10.27;7.45;;;;;;;3.26;68.26;100399.94;4956318;28;20247;-80
2023/01/22 12:31:28;;;;;;;12.77;7.45;;;;;;;3.27;68.07;100398.22;4953916;28;20224;-80
2023/01/22 12:33:59;;;;;;;15.90;8.75;;;;;;;3.27;68.05;100398.22;4955957;28;20209;-80
2023/01/22 12:36:26;;;;;;;12.30;7.75;;;;;;;3.29;68.02;100402.50;4954718;28;20209;-80
2023/01/22 12:39:13;;;;;;;14.98;8.15;;;;;;;3.32;67.74;100404.13;4952500;29;20292;-80
2023/01/22 12:41:45;;;;;;;13.43;12.02;;;;;;;3.35;67.97;100411.00;4952120;28;20205;-80
2023/01/22 12:44:42;;;;;;;12.10;8.25;;;;;;;3.38;67.77;100405.78;4932686;28;20284;-80
2023/01/22 12:47:25;;;;;;;13.15;8.57;;;;;;;3.38;67.61;100398.00;4950869;28;20338;-80
2023/01/22 12:49:52;;;;;;;18.20;8.30;;;;;;;3.39;67.77;100407.47;4950773;28;20287;-80
2023/01/22 12:52:31;;;;;;;11.20;8.35;;;;;;;3.44;67.64;100405.63;4950227;28;20582;-80
2023/01/22 12:54:57;;;;;;;12.25;7.85;;;;;;;3.46;67.33;100409.91;4950931;28;20212;-80
2023/01/22 12:57:34;;;;;;;10.65;7.90;;;;;;;3.46;67.35;100414.25;4937701;28;20706;-80
2023/01/22 13:00:10;;;;;;;10.88;6.60;;;;;;;3.45;67.74;100408.19;4955798;28;20220;-80
2023/01/22 13:02:36;;;;;;;10.05;6.38;;;;;;;3.49;67.42;100414.19;4955093;28;20243;-80
2023/01/22 13:05:28;;;;;;;10.63;8.00;;;;;;;3.49;67.58;100415.03;4954558;28;20476;-80
2023/01/22 13:08:04;;;;;;;10.73;7.65;;;;;;;3.45;67.54;100418.56;4945943;28;20303;-80
2023/01/22 13:10:32;;;;;;;10.43;7.30;;;;;;;3.38;67.75;100416.16;4955198;29;20242;-80
2023/01/22 13:13:02;;;;;;;10.45;7.82;;;;;;;3.36;68.02;100421.38;4954216;28;20701;-79
2023/01/22 13:15:32;;;;;;;9.27;6.32;;;;;;;3.32;67.95;100427.50;4954914;28;20970;-80
2023/01/22 13:18:15;;;;;;;7.72;5.57;;;;;;;3.30;67.78;100418.91;4953687;28;20199;-79
2023/01/22 13:20:55;;;;;;;8.65;5.40;;;;;;;3.27;67.76;100429.38;4935231;29;20264;-80
2023/01/22 13:23:21;;;;;;;10.77;7.43;;;;;;;3.23;67.60;100425.97;4956155;28;20229;-80
2023/01/22 13:25:52;;;;;;;8.20;6.13;;;;;;;3.19;67.91;100429.53;4956148;28;20212;-79
2023/01/22 13:28:18;;;;;;;10.85;6.70;;;;;;;3.20;67.81;100435.56;4943542;28;20854;-79
2023/01/22 13:30:59;;;;;;;10.90;6.90;;;;;;;3.17;67.75;100420.91;4950920;29;22512;-79
2023/01/22 13:33:24;;;;;;;6.72;5.80;;;;;;;3.17;68.00;100427.84;4957180;28;20205;-79
2023/01/22 13:35:50;;;;;;;11.43;9.00;;;;;;;3.19;67.86;100421.72;4960760;28;20295;-79
2023/01/22 13:38:24;;;;;;;8.37;6.60;;;;;;;3.22;67.93;100426.00;4954988;28;20261;-79
2023/01/22 13:41:05;;;;;;;8.98;7.10;;;;;;;3.20;67.98;100433.81;4951196;28;20224;-79
2023/01/22 13:43:33;;;;;;;8.73;7.30;;;;;;;3.18;68.01;100425.19;4951211;28;20209;-79
2023/01/22 13:45:59;;;;;;;13.15;10.27;;;;;;;3.18;68.12;100426.94;4963482;28;20216;-80
2023/01/22 13:48:26;;;;;;;8.50;6.15;;;;;;;3.15;67.94;100422.66;4960143;29;20388;-80
2023/01/22 13:51:01;;;;;;;9.68;7.85;;;;;;;3.16;68.10;100437.38;4960021;28;20216;-80
2023/01/22 13:53:31;;;;;;;10.75;7.53;;;;;;;3.14;68.26;100426.16;4957003;28;20196;-80
2023/01/22 13:56:01;;;;;;;10.25;8.07;;;;;;;3.14;68.12;100435.69;4960547;29;20193;-79
2023/01/22 13:58:29;;;;;;;13.52;8.23;;;;;;;3.14;67.97;100441.72;4960410;29;20225;-80
2023/01/22 14:00:58;;;;;;;12.77;9.65;;;;;;;3.15;68.17;100446.03;4959241;28;20405;-80
2023/01/22 14:03:26;;;;;;;12.85;9.48;;;;;;;3.11;68.28;100444.41;4957767;28;20490;-80
2023/01/22 14:06:17;;;;;;;10.55;8.15;;;;;;;3.08;68.79;100455.69;4977726;28;20448;-80
2023/01/22 14:08:49;;;;;;;9.75;7.97;;;;;;;3.03;68.67;100456.66;4966226;28;20319;-80
2023/01/22 14:11:18;;;;;;;7.03;6.32;;;;;;;3.03;68.75;100457.53;4949079;29;20275;-80
2023/01/22 14:13:49;;;;;;;11.25;7.35;;;;;;;3.04;68.71;100460.97;4955345;29;20205;-80
2023/01/22 14:16:15;;;;;;;10.00;7.45;;;;;;;2.99;68.67;100455.00;4948205;29;20208;-80
2023/01/22 14:18:44;;;;;;;8.30;6.47;;;;;;;2.98;68.63;100461.09;4952761;29;20232;-80
2023/01/22 14:21:13;;;;;;;9.63;6.47;;;;;;;2.95;68.78;100462.00;4942334;29;20190;-80
2023/01/22 14:23:38;;;;;;;10.30;7.88;;;;;;;2.93;68.60;100450.78;4937753;29;20284;-80
2023/01/22 14:26:07;;;;;;;8.93;6.47;;;;;;;2.93;68.81;100466.34;4936103;29;20602;-80
2023/01/22 14:28:34;;;;;;;8.80;6.60;;;;;;;2.94;68.61;100464.59;4931236;29;20234;-79
2023/01/22 14:31:00;;;;;;;11.77;6.80;;;;;;;2.96;68.69;100455.06;4941061;28;20230;-80
2023/01/22 14:33:30;;;;;;;8.63;7.00;;;;;;;2.93;68.81;100461.16;4928734;29;20260;-80
2023/01/22 14:35:56;;;;;;;8.98;7.07;;;;;;;2.93;68.63;100463.75;4933484;29;20638;-79
2023/01/22 14:38:23;;;;;;;11.63;7.15;;;;;;;2.94;68.97;100469.81;4928703;29;20252;-79
2023/01/22 14:40:48;;;;;;;7.32;6.45;;;;;;;2.94;68.98;100473.25;4928933;29;20296;-79
2023/01/22 14:43:18;;;;;;;9.20;6.97;;;;;;;2.95;68.72;100472.38;4927723;29;20598;-79
2023/01/22 14:45:45;;;;;;;8.85;7.03;;;;;;;2.95;68.89;100481.91;4932737;28;20298;-79
2023/01/22 14:48:15;;;;;;;6.75;5.97;;;;;;;2.93;68.99;100474.13;4927828;29;20228;-79
2023/01/22 14:50:42;;;;;;;10.55;6.53;;;;;;;2.91;69.05;100469.84;4927353;29;20297;-79
2023/01/22 14:53:10;;;;;;;8.60;7.32;;;;;;;2.92;68.98;100479.34;4929556;29;20208;-79
2023/01/22 14:55:36;;;;;;;8.50;5.45;;;;;;;2.91;68.99;100480.25;4933198;29;20205;-80
2023/01/22 14:58:01;;;;;;;11.23;7.20;;;;;;;2.87;69.20;100477.72;4936691;29;20548;-80
2023/01/22 15:00:28;;;;;;;12.73;8.20;;;;;;;2.85;69.05;100479.47;4937482;29;20292;-80
2023/01/22 15:03:12;;;;;;;9.20;6.95;;;;;;;2.80;69.36;100481.28;4936493;29;20212;-80
2023/01/22 15:05:41;;;;;;;9.40;8.20;;;;;;;2.81;69.31;100484.75;4937162;29;20202;-80
2023/01/22 15:08:09;;;;;;;10.90;8.20;;;;;;;2.82;69.61;100482.13;4934144;28;20293;-80
2023/01/22 15:10:35;;;;;;;11.55;7.85;;;;;;;2.83;69.60;100486.41;4955795;29;20232;-81
2023/01/22 15:13:00;;;;;;;8.50;7.00;;;;;;;2.85;69.50;100500.22;4948473;29;20220;-79
2023/01/22 15:15:27;;;;;;;9.77;8.07;;;;;;;2.85;69.49;100492.44;4946350;28;20197;-79
2023/01/22 15:17:53;;;;;;;8.40;5.72;;;;;;;2.86;69.52;100501.94;4946223;28;20212;-79
2023/01/22 15:20:20;;;;;;;17.08;10.95;;;;;;;2.84;69.91;100514.09;4944723;28;20690;-79
2023/01/22 15:22:47;;;;;;;11.85;8.70;;;;;;;2.81;69.50;100502.91;4948267;28;20586;-80
2023/01/22 15:25:12;;;;;;;8.50;6.18;;;;;;;2.76;70.05;100505.59;4947414;29;20392;-79
2023/01/22 15:27:38;;;;;;;14.70;7.80;;;;;;;2.73;69.89;100510.81;4947784;28;20870;-79
2023/01/22 15:30:05;;;;;;;7.70;7.00;;;;;;;2.72;69.97;100506.50;4944984;29;20221;-80
2023/01/22 15:32:31;;;;;;;10.45;7.65;;;;;;;2.72;70.33;100514.28;4946600;29;20223;-80